Sti Aqua — V7BN2 — position and weather

sailwx.info

Track history (hours):
 
Tides and Currents Weather Stations Pressure Air Temp Water Temp Dewpoint Dewpoint Depression Visibility Wind Speed Wind Dir Waves Ship Positions

Sti Aqua

Last reported at 2017-Dec-29 06:25 UTC. Time now 2018-Jan-23 08:22 UTC.
Position N 38°57' W 011°16'.
Warning: this ship's position is 25 days out of date.

Length 183 m; draft 9.4 m.

Type: Tanker. MMSI: 538005172.

Date/timePositionNaut miles runAvg speedWind from/ knotsBaromVisibWave heightAir tempDewpointWater temp
2017-Dec-29 06:25N 38°57' W 011°16'612.7
2017-Dec-29 05:56N 38°51' W 011°18'512.1
2017-Dec-29 05:30N 38°46' W 011°20'1012.2
2017-Dec-29 04:40N 38°36' W 011°23'212.5
2017-Dec-29 04:30N 38°35' W 011°23'612.2
2017-Dec-29 04:00N 38°28' W 011°25'912.4
2017-Dec-29 03:16N 38°20' W 011°28'711.9
2017-Dec-29 02:39N 38°13' W 011°31'412.0
2017-Dec-29 02:20N 38°09' W 011°33'411.8
2017-Dec-29 02:00N 38°06' W 011°35'611.8
2017-Dec-29 01:31N 38°00' W 011°37'612.0
2017-Dec-29 01:00N 37°55' W 011°40'912.1
2017-Dec-29 00:16N 37°46' W 011°45'1011.8
2017-Dec-28 23:24N 37°37' W 011°49'54512.2
2017-Dec-27 02:39N 28°56' W 015°03'213.3
2017-Dec-27 02:31N 28°54' W 015°04'713.3
2017-Dec-27 02:01N 28°48' W 015°06'713.3
2017-Dec-27 01:31N 28°42' W 015°08'713.1
2017-Dec-27 01:00N 28°35' W 015°11'713.1
2017-Dec-27 00:30N 28°29' W 015°13'612.9
2017-Dec-27 00:00N 28°23' W 015°15'713.2
2017-Dec-26 23:30N 28°17' W 015°17'713.1
2017-Dec-26 23:00N 28°11' W 015°20'4 8.2
2017-Dec-26 22:28N 28°08' W 015°24'0 0.2
2017-Dec-26 21:58N 28°08' W 015°24'0 0.0
2017-Dec-26 21:28N 28°08' W 015°24'0 0.0
2017-Dec-26 20:58N 28°08' W 015°24'0 0.0
2017-Dec-26 20:28N 28°08' W 015°24'0 0.0
2017-Dec-26 19:58N 28°08' W 015°24'0 0.0
2017-Dec-26 19:28N 28°08' W 015°24'0 0.1
2017-Dec-26 18:58N 28°08' W 015°24'0 0.1
2017-Dec-26 18:28N 28°08' W 015°24'1 2.2
2017-Dec-26 18:00N 28°07' W 015°23'2 3.8
2017-Dec-26 17:30N 28°06' W 015°21'3 6.3
2017-Dec-26 17:00N 28°04' W 015°18'611.5
2017-Dec-26 16:30N 27°59' W 015°15'713.9
2017-Dec-26 16:00N 27°53' W 015°15'713.9
2017-Dec-26 15:30N 27°46' W 015°15'713.4
2017-Dec-26 15:00N 27°39' W 015°14'  
2017-Dec-22 19:03N 09°20' W 015°21'114.4
2017-Dec-22 19:01N 09°19' W 015°20'714.1
2017-Dec-22 18:31N 09°16' W 015°14'714.2
2017-Dec-22 18:00N 09°13' W 015°08'713.9
2017-Dec-22 17:28N 09°09' W 015°01'713.5
2017-Dec-22 16:59N 09°06' W 014°55'1213.8
2017-Dec-22 16:09N 09°00' W 014°45'313.7
2017-Dec-22 15:58N 08°59' W 014°43'614.1
2017-Dec-22 15:30N 08°57' W 014°37'713.9
2017-Dec-22 14:59N 08°54' W 014°30'613.3
2017-Dec-22 14:30N 08°54' W 014°24'714.2
2017-Dec-22 14:00N 08°58' W 014°17'714.2
2017-Dec-22 13:30N 09°01' W 014°11'713.8
2017-Dec-22 13:00N 09°04' W 014°05'610.8
2017-Dec-22 12:30N 09°07' W 014°00'1 2.7
2017-Dec-22 12:00N 09°08' W 013°59'612.3
2017-Dec-22 11:30N 09°11' W 013°54'713.5
2017-Dec-22 11:00N 09°16' W 013°49'713.4
2017-Dec-22 10:30N 09°21' W 013°44'611.0
2017-Dec-22 10:00N 09°26' W 013°43'4 7.6
2017-Dec-22 09:30N 09°30' W 013°44'2 3.0
2017-Dec-22 09:00N 09°31' W 013°43'0 0.1
2017-Dec-22 08:28N 09°31' W 013°43'0 0.0
2017-Dec-22 07:58N 09°31' W 013°43'0 0.0
2017-Dec-22 07:29N 09°31' W 013°43'0 0.0
2017-Dec-22 06:58N 09°31' W 013°43'0 0.0
2017-Dec-22 06:28N 09°31' W 013°43'0 0.0
2017-Dec-22 05:58N 09°31' W 013°43'0 0.0
2017-Dec-22 05:28N 09°31' W 013°43'0 0.0
2017-Dec-22 04:58N 09°31' W 013°43'0 0.0
2017-Dec-22 04:28N 09°31' W 013°43'0 0.0
2017-Dec-22 03:58N 09°31' W 013°43'0 0.0
2017-Dec-22 03:28N 09°31' W 013°43'0 0.0
2017-Dec-22 02:58N 09°31' W 013°43'0 0.0
2017-Dec-22 02:28N 09°31' W 013°43'0 0.0
2017-Dec-22 01:58N 09°31' W 013°43'0 0.0
2017-Dec-22 01:28N 09°31' W 013°43'0 0.0
2017-Dec-22 00:58N 09°31' W 013°43'0 0.0
2017-Dec-22 00:28N 09°31' W 013°43'0 0.0
2017-Dec-21 23:58N 09°31' W 013°43'0 0.0
2017-Dec-21 23:29N 09°31' W 013°43'0 0.0
2017-Dec-21 22:58N 09°31' W 013°43'0 0.0
2017-Dec-21 22:28N 09°31' W 013°43'0 0.0
2017-Dec-21 21:58N 09°31' W 013°43'0 0.0
2017-Dec-21 21:29N 09°31' W 013°43'0 0.0
2017-Dec-21 20:58N 09°31' W 013°43'0 0.0
2017-Dec-21 20:28N 09°31' W 013°43'0 0.0
2017-Dec-21 19:58N 09°31' W 013°43'0 0.0
2017-Dec-21 19:28N 09°31' W 013°43'0 0.0
2017-Dec-21 18:58N 09°31' W 013°43'0 0.0
2017-Dec-21 18:28N 09°31' W 013°43'0 0.0
2017-Dec-21 17:58N 09°31' W 013°43'0 0.0
2017-Dec-21 17:28N 09°31' W 013°43'0 0.0
2017-Dec-21 16:58N 09°31' W 013°43'0 0.0
2017-Dec-21 16:28N 09°31' W 013°43'0 0.0
2017-Dec-21 15:58N 09°31' W 013°43'0 0.0
2017-Dec-21 15:25N 09°31' W 013°43'0 0.0
2017-Dec-21 14:58N 09°31' W 013°43'0 0.0
2017-Dec-21 14:29N 09°31' W 013°43'0 0.0
2017-Dec-21 13:59N 09°31' W 013°43'0 0.0
2017-Dec-21 13:28N 09°31' W 013°43'0 0.0
2017-Dec-21 12:58N 09°31' W 013°43'0 0.0
2017-Dec-21 12:28N 09°31' W 013°43'0 0.0
2017-Dec-21 11:59N 09°31' W 013°43'0 0.0
2017-Dec-21 11:29N 09°31' W 013°43'0 0.0
2017-Dec-21 10:58N 09°31' W 013°43'0 0.0
2017-Dec-21 06:40N 09°31' W 013°43'0 0.0
2017-Dec-21 06:28N 09°31' W 013°43'0 0.0
2017-Dec-21 05:58N 09°31' W 013°43'0 0.0
2017-Dec-21 05:28N 09°31' W 013°43'0 0.0
2017-Dec-21 04:58N 09°31' W 013°43'0 0.0
2017-Dec-21 04:28N 09°31' W 013°43'0 0.0
2017-Dec-21 03:58N 09°31' W 013°43'0 0.0
2017-Dec-21 03:29N 09°31' W 013°43'0 0.0
2017-Dec-21 02:58N 09°31' W 013°43'0 0.0
2017-Dec-21 02:29N 09°31' W 013°43'0 0.0
2017-Dec-21 01:58N 09°31' W 013°43'0 0.0
2017-Dec-21 01:28N 09°31' W 013°43'0 0.0
2017-Dec-21 00:58N 09°31' W 013°43'0 0.0
2017-Dec-20 23:37N 09°31' W 013°43'0 0.0
2017-Dec-20 23:28N 09°31' W 013°43'0 0.0
2017-Dec-20 22:58N 09°31' W 013°43'0 0.0
2017-Dec-20 22:28N 09°31' W 013°43'0 0.0
2017-Dec-20 21:58N 09°31' W 013°43'0 0.0
2017-Dec-20 21:28N 09°31' W 013°43'0 0.0
2017-Dec-20 20:58N 09°31' W 013°43'0 0.0
2017-Dec-20 20:28N 09°31' W 013°43'0 0.0
2017-Dec-20 19:58N 09°31' W 013°43'0 0.0
2017-Dec-20 19:28N 09°31' W 013°43'0 0.0
2017-Dec-20 18:58N 09°31' W 013°43'0 0.0
2017-Dec-20 18:28N 09°31' W 013°43'0 0.0
2017-Dec-20 17:58N 09°31' W 013°43'0 0.0
2017-Dec-20 17:28N 09°31' W 013°43'0 0.0
2017-Dec-20 16:56N 09°31' W 013°43'0 0.0
2017-Dec-20 16:29N 09°31' W 013°43'0 0.0
2017-Dec-20 15:58N 09°31' W 013°43'0 0.0
2017-Dec-20 15:28N 09°31' W 013°43'0 0.0
2017-Dec-20 14:58N 09°31' W 013°43'0 0.0
2017-Dec-20 14:28N 09°31' W 013°43'0 0.0
2017-Dec-20 13:58N 09°31' W 013°43'0 0.0
2017-Dec-20 13:29N 09°31' W 013°43'0 0.0
2017-Dec-20 12:59N 09°31' W 013°43'0 0.0
2017-Dec-20 12:28N 09°31' W 013°43'0 0.0
2017-Dec-20 11:58N 09°31' W 013°43'0 0.0
2017-Dec-20 11:28N 09°31' W 013°43'0 0.0
2017-Dec-20 10:43N 09°31' W 013°43'0 0.0
2017-Dec-20 10:28N 09°31' W 013°43'0 0.0
2017-Dec-20 09:55N 09°31' W 013°43'0 0.0
2017-Dec-20 09:28N 09°31' W 013°43'0 0.0
2017-Dec-20 08:58N 09°31' W 013°43'0 0.0
2017-Dec-20 08:28N 09°31' W 013°43'0 0.0
2017-Dec-20 07:58N 09°31' W 013°43'0 0.0
2017-Dec-20 07:28N 09°31' W 013°43'0 0.0
2017-Dec-20 06:58N 09°31' W 013°43'0 0.0
2017-Dec-20 06:28N 09°31' W 013°43'0 0.0
2017-Dec-20 05:58N 09°31' W 013°43'0 0.0
2017-Dec-20 05:28N 09°31' W 013°43'0 0.0
2017-Dec-20 04:58N 09°31' W 013°43'0 0.0
2017-Dec-20 04:28N 09°31' W 013°43'0 0.0
2017-Dec-20 03:58N 09°31' W 013°43'0 0.0
2017-Dec-20 03:28N 09°31' W 013°43'0 0.0
2017-Dec-20 02:58N 09°31' W 013°43'0 0.0
2017-Dec-20 02:28N 09°31' W 013°43'0 0.0
2017-Dec-20 01:58N 09°31' W 013°43'0 0.0
2017-Dec-20 01:28N 09°31' W 013°43'0 0.0
2017-Dec-20 00:10N 09°31' W 013°43'0 0.0
2017-Dec-19 23:58N 09°31' W 013°43'0 0.0
2017-Dec-19 23:28N 09°31' W 013°43'0 0.0
2017-Dec-19 22:58N 09°31' W 013°43'0 0.0
2017-Dec-19 22:28N 09°31' W 013°43'0 0.0
2017-Dec-19 21:56N 09°31' W 013°43'0 0.0
2017-Dec-19 21:29N 09°31' W 013°43'0 0.0
2017-Dec-19 20:59N 09°31' W 013°43'0 0.0
2017-Dec-19 20:28N 09°31' W 013°43'0 0.0
2017-Dec-19 19:58N 09°31' W 013°43'0 0.0
2017-Dec-19 19:28N 09°31' W 013°43'0 0.0
2017-Dec-19 18:58N 09°31' W 013°43'0 0.0
2017-Dec-19 18:28N 09°31' W 013°43'0 0.0
2017-Dec-19 17:58N 09°31' W 013°43'0 0.0
2017-Dec-19 17:28N 09°31' W 013°43'0 0.0
2017-Dec-19 16:58N 09°31' W 013°43'0 0.0
2017-Dec-19 16:28N 09°31' W 013°43'0 0.0
2017-Dec-19 15:58N 09°31' W 013°43'0 0.0
2017-Dec-19 15:28N 09°31' W 013°43'0 0.0
2017-Dec-19 14:58N 09°31' W 013°43'0 0.0
2017-Dec-19 14:28N 09°31' W 013°43'0 0.0
2017-Dec-19 13:58N 09°31' W 013°43'0 0.0
2017-Dec-19 13:28N 09°31' W 013°43'0 0.0
2017-Dec-19 12:58N 09°31' W 013°43'0 0.0
2017-Dec-19 12:29N 09°31' W 013°43'0 0.0
2017-Dec-19 11:59N 09°31' W 013°43'0 0.0
2017-Dec-19 11:29N 09°31' W 013°43'0 0.0
2017-Dec-19 10:56N 09°31' W 013°43'0 0.0
2017-Dec-19 10:28N 09°31' W 013°43'0 0.0
2017-Dec-19 09:58N 09°31' W 013°43'0 0.0
2017-Dec-19 09:28N 09°31' W 013°43'0 0.0
2017-Dec-19 08:58N 09°31' W 013°43'  
Track history (hours):
 
Tides and Currents Weather Stations Pressure Air Temp Water Temp Dewpoint Dewpoint Depression Visibility Wind Speed Wind Dir Waves Ship Positions

Sti Aqua

Last reported at 2017-Dec-29 06:25 UTC. Time now 2018-Jan-23 08:22 UTC.
Position N 38°57' W 011°16'.
Warning: this ship's position is 25 days out of date.

Length 183 m; draft 9.4 m.

Type: Tanker. MMSI: 538005172.

Date/timePositionNaut miles runAvg speedWind from/ knotsBaromVisibWave heightAir tempDewpointWater temp
2017-Dec-29 06:25N 38°57' W 011°16'612.7
2017-Dec-29 05:56N 38°51' W 011°18'512.1
2017-Dec-29 05:30N 38°46' W 011°20'1012.2
2017-Dec-29 04:40N 38°36' W 011°23'212.5
2017-Dec-29 04:30N 38°35' W 011°23'612.2
2017-Dec-29 04:00N 38°28' W 011°25'912.4
2017-Dec-29 03:16N 38°20' W 011°28'711.9
2017-Dec-29 02:39N 38°13' W 011°31'412.0
2017-Dec-29 02:20N 38°09' W 011°33'411.8
2017-Dec-29 02:00N 38°06' W 011°35'611.8
2017-Dec-29 01:31N 38°00' W 011°37'612.0
2017-Dec-29 01:00N 37°55' W 011°40'912.1
2017-Dec-29 00:16N 37°46' W 011°45'1011.8
2017-Dec-28 23:24N 37°37' W 011°49'54512.2
2017-Dec-27 02:39N 28°56' W 015°03'213.3
2017-Dec-27 02:31N 28°54' W 015°04'713.3
2017-Dec-27 02:01N 28°48' W 015°06'713.3
2017-Dec-27 01:31N 28°42' W 015°08'713.1
2017-Dec-27 01:00N 28°35' W 015°11'713.1
2017-Dec-27 00:30N 28°29' W 015°13'612.9
2017-Dec-27 00:00N 28°23' W 015°15'713.2
2017-Dec-26 23:30N 28°17' W 015°17'713.1
2017-Dec-26 23:00N 28°11' W 015°20'4 8.2
2017-Dec-26 22:28N 28°08' W 015°24'0 0.2
2017-Dec-26 21:58N 28°08' W 015°24'0 0.0
2017-Dec-26 21:28N 28°08' W 015°24'0 0.0
2017-Dec-26 20:58N 28°08' W 015°24'0 0.0
2017-Dec-26 20:28N 28°08' W 015°24'0 0.0
2017-Dec-26 19:58N 28°08' W 015°24'0 0.0
2017-Dec-26 19:28N 28°08' W 015°24'0 0.1
2017-Dec-26 18:58N 28°08' W 015°24'0 0.1
2017-Dec-26 18:28N 28°08' W 015°24'1 2.2
2017-Dec-26 18:00N 28°07' W 015°23'2 3.8
2017-Dec-26 17:30N 28°06' W 015°21'3 6.3
2017-Dec-26 17:00N 28°04' W 015°18'611.5
2017-Dec-26 16:30N 27°59' W 015°15'713.9
2017-Dec-26 16:00N 27°53' W 015°15'713.9
2017-Dec-26 15:30N 27°46' W 015°15'713.4
2017-Dec-26 15:00N 27°39' W 015°14'  
2017-Dec-22 19:03N 09°20' W 015°21'114.4
2017-Dec-22 19:01N 09°19' W 015°20'714.1
2017-Dec-22 18:31N 09°16' W 015°14'714.2
2017-Dec-22 18:00N 09°13' W 015°08'713.9
2017-Dec-22 17:28N 09°09' W 015°01'713.5
2017-Dec-22 16:59N 09°06' W 014°55'1213.8
2017-Dec-22 16:09N 09°00' W 014°45'313.7
2017-Dec-22 15:58N 08°59' W 014°43'614.1
2017-Dec-22 15:30N 08°57' W 014°37'713.9
2017-Dec-22 14:59N 08°54' W 014°30'613.3
2017-Dec-22 14:30N 08°54' W 014°24'714.2
2017-Dec-22 14:00N 08°58' W 014°17'714.2
2017-Dec-22 13:30N 09°01' W 014°11'713.8
2017-Dec-22 13:00N 09°04' W 014°05'610.8
2017-Dec-22 12:30N 09°07' W 014°00'1 2.7
2017-Dec-22 12:00N 09°08' W 013°59'612.3
2017-Dec-22 11:30N 09°11' W 013°54'713.5
2017-Dec-22 11:00N 09°16' W 013°49'713.4
2017-Dec-22 10:30N 09°21' W 013°44'611.0
2017-Dec-22 10:00N 09°26' W 013°43'4 7.6
2017-Dec-22 09:30N 09°30' W 013°44'2 3.0
2017-Dec-22 09:00N 09°31' W 013°43'0 0.1
2017-Dec-22 08:28N 09°31' W 013°43'0 0.0
2017-Dec-22 07:58N 09°31' W 013°43'0 0.0
2017-Dec-22 07:29N 09°31' W 013°43'0 0.0
2017-Dec-22 06:58N 09°31' W 013°43'0 0.0
2017-Dec-22 06:28N 09°31' W 013°43'0 0.0
2017-Dec-22 05:58N 09°31' W 013°43'0 0.0
2017-Dec-22 05:28N 09°31' W 013°43'0 0.0
2017-Dec-22 04:58N 09°31' W 013°43'0 0.0
2017-Dec-22 04:28N 09°31' W 013°43'0 0.0
2017-Dec-22 03:58N 09°31' W 013°43'0 0.0
2017-Dec-22 03:28N 09°31' W 013°43'0 0.0
2017-Dec-22 02:58N 09°31' W 013°43'0 0.0
2017-Dec-22 02:28N 09°31' W 013°43'0 0.0
2017-Dec-22 01:58N 09°31' W 013°43'0 0.0
2017-Dec-22 01:28N 09°31' W 013°43'0 0.0
2017-Dec-22 00:58N 09°31' W 013°43'0 0.0
2017-Dec-22 00:28N 09°31' W 013°43'0 0.0
2017-Dec-21 23:58N 09°31' W 013°43'0 0.0
2017-Dec-21 23:29N 09°31' W 013°43'0 0.0
2017-Dec-21 22:58N 09°31' W 013°43'0 0.0
2017-Dec-21 22:28N 09°31' W 013°43'0 0.0
2017-Dec-21 21:58N 09°31' W 013°43'0 0.0
2017-Dec-21 21:29N 09°31' W 013°43'0 0.0
2017-Dec-21 20:58N 09°31' W 013°43'0 0.0
2017-Dec-21 20:28N 09°31' W 013°43'0 0.0
2017-Dec-21 19:58N 09°31' W 013°43'0 0.0
2017-Dec-21 19:28N 09°31' W 013°43'0 0.0
2017-Dec-21 18:58N 09°31' W 013°43'0 0.0
2017-Dec-21 18:28N 09°31' W 013°43'0 0.0
2017-Dec-21 17:58N 09°31' W 013°43'0 0.0
2017-Dec-21 17:28N 09°31' W 013°43'0 0.0
2017-Dec-21 16:58N 09°31' W 013°43'0 0.0
2017-Dec-21 16:28N 09°31' W 013°43'0 0.0
2017-Dec-21 15:58N 09°31' W 013°43'0 0.0
2017-Dec-21 15:25N 09°31' W 013°43'0 0.0
2017-Dec-21 14:58N 09°31' W 013°43'0 0.0
2017-Dec-21 14:29N 09°31' W 013°43'0 0.0
2017-Dec-21 13:59N 09°31' W 013°43'0 0.0
2017-Dec-21 13:28N 09°31' W 013°43'0 0.0
2017-Dec-21 12:58N 09°31' W 013°43'0 0.0
2017-Dec-21 12:28N 09°31' W 013°43'0 0.0
2017-Dec-21 11:59N 09°31' W 013°43'0 0.0
2017-Dec-21 11:29N 09°31' W 013°43'0 0.0
2017-Dec-21 10:58N 09°31' W 013°43'0 0.0
2017-Dec-21 06:40N 09°31' W 013°43'0 0.0
2017-Dec-21 06:28N 09°31' W 013°43'0 0.0
2017-Dec-21 05:58N 09°31' W 013°43'0 0.0
2017-Dec-21 05:28N 09°31' W 013°43'0 0.0
2017-Dec-21 04:58N 09°31' W 013°43'0 0.0
2017-Dec-21 04:28N 09°31' W 013°43'0 0.0
2017-Dec-21 03:58N 09°31' W 013°43'0 0.0
2017-Dec-21 03:29N 09°31' W 013°43'0 0.0
2017-Dec-21 02:58N 09°31' W 013°43'0 0.0
2017-Dec-21 02:29N 09°31' W 013°43'0 0.0
2017-Dec-21 01:58N 09°31' W 013°43'0 0.0
2017-Dec-21 01:28N 09°31' W 013°43'0 0.0
2017-Dec-21 00:58N 09°31' W 013°43'0 0.0
2017-Dec-20 23:37N 09°31' W 013°43'0 0.0
2017-Dec-20 23:28N 09°31' W 013°43'0 0.0
2017-Dec-20 22:58N 09°31' W 013°43'0 0.0
2017-Dec-20 22:28N 09°31' W 013°43'0 0.0
2017-Dec-20 21:58N 09°31' W 013°43'0 0.0
2017-Dec-20 21:28N 09°31' W 013°43'0 0.0
2017-Dec-20 20:58N 09°31' W 013°43'0 0.0
2017-Dec-20 20:28N 09°31' W 013°43'0 0.0
2017-Dec-20 19:58N 09°31' W 013°43'0 0.0
2017-Dec-20 19:28N 09°31' W 013°43'0 0.0
2017-Dec-20 18:58N 09°31' W 013°43'0 0.0
2017-Dec-20 18:28N 09°31' W 013°43'0 0.0
2017-Dec-20 17:58N 09°31' W 013°43'0 0.0
2017-Dec-20 17:28N 09°31' W 013°43'0 0.0
2017-Dec-20 16:56N 09°31' W 013°43'0 0.0
2017-Dec-20 16:29N 09°31' W 013°43'0 0.0
2017-Dec-20 15:58N 09°31' W 013°43'0 0.0
2017-Dec-20 15:28N 09°31' W 013°43'0 0.0
2017-Dec-20 14:58N 09°31' W 013°43'0 0.0
2017-Dec-20 14:28N 09°31' W 013°43'0 0.0
2017-Dec-20 13:58N 09°31' W 013°43'0 0.0
2017-Dec-20 13:29N 09°31' W 013°43'0 0.0
2017-Dec-20 12:59N 09°31' W 013°43'0 0.0
2017-Dec-20 12:28N 09°31' W 013°43'0 0.0
2017-Dec-20 11:58N 09°31' W 013°43'0 0.0
2017-Dec-20 11:28N 09°31' W 013°43'0 0.0
2017-Dec-20 10:43N 09°31' W 013°43'0 0.0
2017-Dec-20 10:28N 09°31' W 013°43'0 0.0
2017-Dec-20 09:55N 09°31' W 013°43'0 0.0
2017-Dec-20 09:28N 09°31' W 013°43'0 0.0
2017-Dec-20 08:58N 09°31' W 013°43'0 0.0
2017-Dec-20 08:28N 09°31' W 013°43'0 0.0
2017-Dec-20 07:58N 09°31' W 013°43'0 0.0
2017-Dec-20 07:28N 09°31' W 013°43'0 0.0
2017-Dec-20 06:58N 09°31' W 013°43'0 0.0
2017-Dec-20 06:28N 09°31' W 013°43'0 0.0
2017-Dec-20 05:58N 09°31' W 013°43'0 0.0
2017-Dec-20 05:28N 09°31' W 013°43'0 0.0
2017-Dec-20 04:58N 09°31' W 013°43'0 0.0
2017-Dec-20 04:28N 09°31' W 013°43'0 0.0
2017-Dec-20 03:58N 09°31' W 013°43'0 0.0
2017-Dec-20 03:28N 09°31' W 013°43'0 0.0
2017-Dec-20 02:58N 09°31' W 013°43'0 0.0
2017-Dec-20 02:28N 09°31' W 013°43'0 0.0
2017-Dec-20 01:58N 09°31' W 013°43'0 0.0
2017-Dec-20 01:28N 09°31' W 013°43'0 0.0
2017-Dec-20 00:10N 09°31' W 013°43'0 0.0
2017-Dec-19 23:58N 09°31' W 013°43'0 0.0
2017-Dec-19 23:28N 09°31' W 013°43'0 0.0
2017-Dec-19 22:58N 09°31' W 013°43'0 0.0
2017-Dec-19 22:28N 09°31' W 013°43'0 0.0
2017-Dec-19 21:56N 09°31' W 013°43'0 0.0
2017-Dec-19 21:29N 09°31' W 013°43'0 0.0
2017-Dec-19 20:59N 09°31' W 013°43'0 0.0
2017-Dec-19 20:28N 09°31' W 013°43'0 0.0
2017-Dec-19 19:58N 09°31' W 013°43'0 0.0
2017-Dec-19 19:28N 09°31' W 013°43'0 0.0
2017-Dec-19 18:58N 09°31' W 013°43'0 0.0
2017-Dec-19 18:28N 09°31' W 013°43'0 0.0
2017-Dec-19 17:58N 09°31' W 013°43'0 0.0
2017-Dec-19 17:28N 09°31' W 013°43'0 0.0
2017-Dec-19 16:58N 09°31' W 013°43'0 0.0
2017-Dec-19 16:28N 09°31' W 013°43'0 0.0
2017-Dec-19 15:58N 09°31' W 013°43'0 0.0
2017-Dec-19 15:28N 09°31' W 013°43'0 0.0
2017-Dec-19 14:58N 09°31' W 013°43'0 0.0
2017-Dec-19 14:28N 09°31' W 013°43'0 0.0
2017-Dec-19 13:58N 09°31' W 013°43'0 0.0
2017-Dec-19 13:28N 09°31' W 013°43'0 0.0
2017-Dec-19 12:58N 09°31' W 013°43'0 0.0
2017-Dec-19 12:29N 09°31' W 013°43'0 0.0
2017-Dec-19 11:59N 09°31' W 013°43'0 0.0
2017-Dec-19 11:29N 09°31' W 013°43'0 0.0
2017-Dec-19 10:56N 09°31' W 013°43'0 0.0
2017-Dec-19 10:28N 09°31' W 013°43'0 0.0
2017-Dec-19 09:58N 09°31' W 013°43'0 0.0
2017-Dec-19 09:28N 09°31' W 013°43'0 0.0
2017-Dec-19 08:58N 09°31' W 013°43'  

Dump ship's entire track history